DLH446 EDDF-KDEN
Flight info
| Callsign | DLH446 |
|---|---|
| Flight time | N/A |
| Altitude | 38000 |
| Route | OBOKA5G/25C OBOKA Z28 DIBIR DCT BUDIP DCT MIMVA DCT GETNO DCT NIBOG DCT PIKIL/M085F390 NATA URTAK/N0496F400 DCT LAKES DCT 5630N07000W 5330N08000W 4930N09000W DCT KP84A DCT NYTRO AALLE4 |
| Aircraft | A359/H-SDE2E3GHIJ3J4J5LM1ORWXY/LB1D1 |
Departure
| Time | 2026-05-06 09:02 |
|---|---|
| Airport | Frankfurt Main Airport (EDDF) |
Arrival
| Time | N/A |
|---|---|
| Airport | Denver International Airport (KDEN) |
| Time | Latitude | Longitude | Altitude | Speed | Heading |
|---|---|---|---|---|---|
| 2026-05-06 07:55 | 50.04801 | 8.56588 | 362 ft | 0 kts | 340° |
| 2026-05-06 08:49 | 50.04806 | 8.56585 | 368 ft | 5 kts | 340° |
| 2026-05-06 08:50 | 50.04791 | 8.56593 | 362 ft | 3 kts | 347° |
| 2026-05-06 08:50 | 50.04764 | 8.56599 | 368 ft | 4 kts | 359° |
| 2026-05-06 08:50 | 50.04738 | 8.56600 | 367 ft | 4 kts | 340° |
| 2026-05-06 08:50 | 50.04727 | 8.56593 | 369 ft | 4 kts | 245° |
| 2026-05-06 08:51 | 50.04714 | 8.56569 | 368 ft | 1 kts | 227° |
| 2026-05-06 08:51 | 50.04704 | 8.56552 | 366 ft | 4 kts | 233° |
| 2026-05-06 08:51 | 50.04691 | 8.56517 | 368 ft | 4 kts | 241° |
| 2026-05-06 08:51 | 50.04679 | 8.56479 | 370 ft | 4 kts | 245° |
| 2026-05-06 08:52 | 50.04669 | 8.56441 | 370 ft | 4 kts | 249° |
| 2026-05-06 08:52 | 50.04661 | 8.56410 | 369 ft | 4 kts | 249° |
| 2026-05-06 08:52 | 50.04652 | 8.56372 | 369 ft | 2 kts | 250° |
| 2026-05-06 08:52 | 50.04654 | 8.56382 | 368 ft | 0 kts | 249° |
| 2026-05-06 08:53 | 50.04652 | 8.56369 | 369 ft | 0 kts | 249° |
| 2026-05-06 08:55 | 50.04650 | 8.56360 | 362 ft | 2 kts | 249° |
| 2026-05-06 08:55 | 50.04639 | 8.56316 | 369 ft | 7 kts | 249° |
| 2026-05-06 08:55 | 50.04615 | 8.56222 | 366 ft | 11 kts | 249° |
| 2026-05-06 08:55 | 50.04584 | 8.56090 | 370 ft | 15 kts | 250° |
| 2026-05-06 08:56 | 50.04526 | 8.55959 | 369 ft | 15 kts | 207° |
| 2026-05-06 08:56 | 50.04424 | 8.55911 | 370 ft | 16 kts | 189° |
| 2026-05-06 08:56 | 50.04311 | 8.55948 | 365 ft | 16 kts | 159° |
| 2026-05-06 08:56 | 50.04233 | 8.55933 | 364 ft | 13 kts | 207° |
| 2026-05-06 08:57 | 50.04143 | 8.55942 | 367 ft | 15 kts | 159° |
| 2026-05-06 08:57 | 50.04069 | 8.56039 | 365 ft | 14 kts | 89° |
| 2026-05-06 08:57 | 50.04107 | 8.56196 | 367 ft | 17 kts | 69° |
| 2026-05-06 08:57 | 50.04152 | 8.56385 | 364 ft | 20 kts | 70° |
| 2026-05-06 08:58 | 50.04200 | 8.56583 | 367 ft | 19 kts | 70° |
| 2026-05-06 08:58 | 50.04248 | 8.56786 | 373 ft | 21 kts | 70° |
| 2026-05-06 08:58 | 50.04301 | 8.57009 | 373 ft | 23 kts | 70° |
| 2026-05-06 08:58 | 50.04360 | 8.57257 | 373 ft | 26 kts | 70° |
| 2026-05-06 08:59 | 50.04426 | 8.57527 | 369 ft | 28 kts | 69° |
| 2026-05-06 08:59 | 50.04467 | 8.57709 | 373 ft | 27 kts | 70° |
| 2026-05-06 08:59 | 50.04547 | 8.58038 | 374 ft | 10 kts | 70° |
| 2026-05-06 08:59 | 50.04560 | 8.58090 | 372 ft | 9 kts | 70° |
| 2026-05-06 09:00 | 50.04593 | 8.58232 | 378 ft | 11 kts | 70° |
| 2026-05-06 09:00 | 50.04623 | 8.58352 | 376 ft | 13 kts | 69° |
| 2026-05-06 09:00 | 50.04645 | 8.58444 | 377 ft | 14 kts | 69° |
| 2026-05-06 09:00 | 50.04636 | 8.58558 | 376 ft | 11 kts | 139° |
| 2026-05-06 09:01 | 50.04565 | 8.58604 | 376 ft | 12 kts | 160° |
| 2026-05-06 09:01 | 50.04495 | 8.58596 | 377 ft | 11 kts | 225° |
| 2026-05-06 09:01 | 50.04436 | 8.58370 | 375 ft | 49 kts | 249° |
| 2026-05-06 09:01 | 50.04246 | 8.57569 | 375 ft | 107 kts | 249° |
| 2026-05-06 09:02 | 50.03922 | 8.56227 | 365 ft | 157 kts | 249° |
| 2026-05-06 09:02 | 50.03533 | 8.54537 | 782 ft | 167 kts | 248° |
| 2026-05-06 09:02 | 50.03129 | 8.52866 | 1462 ft | 163 kts | 248° |
| 2026-05-06 09:02 | 50.02766 | 8.51149 | 1877 ft | 175 kts | 257° |
| 2026-05-06 09:03 | 50.02726 | 8.49146 | 2112 ft | 196 kts | 272° |
| 2026-05-06 09:03 | 50.02863 | 8.46956 | 2468 ft | 209 kts | 274° |
| 2026-05-06 09:03 | 50.02964 | 8.44654 | 2895 ft | 217 kts | 266° |
| 2026-05-06 09:03 | 50.02785 | 8.42261 | 3286 ft | 231 kts | 259° |
| 2026-05-06 09:04 | 50.02488 | 8.39713 | 3590 ft | 246 kts | 258° |
| 2026-05-06 09:04 | 50.02165 | 8.37065 | 4141 ft | 250 kts | 258° |
| 2026-05-06 09:04 | 50.01841 | 8.34398 | 4753 ft | 253 kts | 258° |
| 2026-05-06 09:04 | 50.01515 | 8.31699 | 5360 ft | 254 kts | 259° |
| 2026-05-06 09:05 | 50.01321 | 8.28953 | 5989 ft | 258 kts | 270° |
| 2026-05-06 09:05 | 50.01713 | 8.26223 | 6606 ft | 263 kts | 289° |
| 2026-05-06 09:05 | 50.02445 | 8.23597 | 7192 ft | 267 kts | 292° |
| 2026-05-06 09:05 | 50.03235 | 8.20958 | 7801 ft | 271 kts | 292° |
| 2026-05-06 09:06 | 50.04032 | 8.18284 | 8408 ft | 274 kts | 291° |
| 2026-05-06 09:06 | 50.04830 | 8.15573 | 9039 ft | 277 kts | 291° |
| 2026-05-06 09:06 | 50.05662 | 8.12834 | 9669 ft | 282 kts | 295° |
| 2026-05-06 09:06 | 50.06773 | 8.10252 | 10131 ft | 295 kts | 304° |
| 2026-05-06 09:07 | 50.08081 | 8.07681 | 10367 ft | 312 kts | 306° |
| 2026-05-06 09:07 | 50.09486 | 8.04983 | 10600 ft | 329 kts | 306° |
| 2026-05-06 09:07 | 50.10941 | 8.02178 | 10830 ft | 345 kts | 306° |
| 2026-05-06 09:07 | 50.12494 | 7.99172 | 11231 ft | 356 kts | 306° |
| 2026-05-06 09:08 | 50.14039 | 7.96183 | 11801 ft | 360 kts | 306° |
| 2026-05-06 09:08 | 50.15617 | 7.93120 | 12455 ft | 362 kts | 306° |
| 2026-05-06 09:08 | 50.17192 | 7.90057 | 13158 ft | 363 kts | 306° |
| 2026-05-06 09:08 | 50.18778 | 7.86960 | 13718 ft | 366 kts | 306° |
| 2026-05-06 09:09 | 50.20375 | 7.83838 | 14200 ft | 370 kts | 306° |
| 2026-05-06 09:09 | 50.21995 | 7.80666 | 14698 ft | 374 kts | 306° |
| 2026-05-06 09:09 | 50.23606 | 7.77513 | 15197 ft | 378 kts | 306° |
| 2026-05-06 09:09 | 50.25422 | 7.74486 | 15675 ft | 385 kts | 317° |
| 2026-05-06 09:10 | 50.27715 | 7.72244 | 16165 ft | 393 kts | 331° |
| 2026-05-06 09:10 | 50.30218 | 7.70477 | 16661 ft | 397 kts | 334° |
| 2026-05-06 09:10 | 50.32769 | 7.68761 | 17144 ft | 401 kts | 334° |
| 2026-05-06 09:10 | 50.35338 | 7.67029 | 17684 ft | 404 kts | 334° |
| 2026-05-06 09:11 | 50.37933 | 7.65271 | 18161 ft | 408 kts | 334° |
| 2026-05-06 09:11 | 50.40515 | 7.63507 | 18626 ft | 410 kts | 333° |
| 2026-05-06 09:11 | 50.43131 | 7.61712 | 19170 ft | 411 kts | 333° |
| 2026-05-06 09:11 | 50.45774 | 7.59894 | 19680 ft | 414 kts | 333° |
| 2026-05-06 09:12 | 50.48424 | 7.58068 | 20155 ft | 417 kts | 333° |
| 2026-05-06 09:12 | 50.51089 | 7.56229 | 20644 ft | 420 kts | 333° |
| 2026-05-06 09:12 | 50.53779 | 7.54370 | 21129 ft | 423 kts | 333° |
| 2026-05-06 09:12 | 50.56409 | 7.52287 | 21611 ft | 423 kts | 326° |
| 2026-05-06 09:13 | 50.58914 | 7.49832 | 22108 ft | 425 kts | 324° |
| 2026-05-06 09:13 | 50.61406 | 7.47281 | 22603 ft | 428 kts | 323° |
| 2026-05-06 09:13 | 50.63909 | 7.44704 | 23148 ft | 430 kts | 324° |
| 2026-05-06 09:13 | 50.66386 | 7.42156 | 23630 ft | 432 kts | 326° |
| 2026-05-06 09:14 | 50.68915 | 7.39556 | 24023 ft | 435 kts | 326° |
| 2026-05-06 09:14 | 50.71457 | 7.36936 | 24418 ft | 437 kts | 326° |
| 2026-05-06 09:14 | 50.73889 | 7.34031 | 24822 ft | 439 kts | 317° |
| 2026-05-06 09:14 | 50.75968 | 7.30494 | 25220 ft | 440 kts | 308° |
| 2026-05-06 09:15 | 50.77839 | 7.26652 | 25601 ft | 443 kts | 305° |
| 2026-05-06 09:15 | 50.79641 | 7.22672 | 25967 ft | 445 kts | 304° |
| 2026-05-06 09:15 | 50.81407 | 7.18637 | 26353 ft | 448 kts | 304° |
| 2026-05-06 09:15 | 50.83179 | 7.14553 | 26745 ft | 451 kts | 304° |
| 2026-05-06 09:16 | 50.84965 | 7.10449 | 27104 ft | 453 kts | 304° |
| 2026-05-06 09:16 | 50.86765 | 7.06338 | 27487 ft | 456 kts | 304° |
| 2026-05-06 09:16 | 50.88582 | 7.02209 | 27823 ft | 459 kts | 305° |
| 2026-05-06 09:16 | 50.90421 | 6.98048 | 28197 ft | 462 kts | 306° |
| 2026-05-06 09:17 | 50.92270 | 6.93875 | 28578 ft | 464 kts | 306° |
| 2026-05-06 09:17 | 50.94132 | 6.89666 | 28945 ft | 467 kts | 306° |
| 2026-05-06 09:17 | 50.96000 | 6.85435 | 29318 ft | 469 kts | 306° |
| 2026-05-06 09:17 | 50.97852 | 6.81230 | 29658 ft | 472 kts | 306° |
| 2026-05-06 09:18 | 50.99741 | 6.76935 | 29976 ft | 474 kts | 306° |
| 2026-05-06 09:18 | 51.01633 | 6.72622 | 30243 ft | 477 kts | 305° |
| 2026-05-06 09:18 | 51.03535 | 6.68280 | 30489 ft | 481 kts | 305° |
| 2026-05-06 09:18 | 51.05444 | 6.63917 | 30824 ft | 481 kts | 304° |
| 2026-05-06 09:19 | 51.07357 | 6.59534 | 31032 ft | 484 kts | 304° |
| 2026-05-06 09:19 | 51.09280 | 6.55127 | 31287 ft | 486 kts | 304° |
| 2026-05-06 09:19 | 51.11211 | 6.50698 | 31559 ft | 487 kts | 304° |
| 2026-05-06 09:19 | 51.13141 | 6.46255 | 31799 ft | 488 kts | 304° |
| 2026-05-06 09:20 | 51.15071 | 6.41798 | 32022 ft | 489 kts | 303° |
| 2026-05-06 09:20 | 51.17004 | 6.37327 | 32253 ft | 490 kts | 303° |
| 2026-05-06 09:20 | 51.18938 | 6.32847 | 32615 ft | 488 kts | 303° |
| 2026-05-06 09:20 | 51.20862 | 6.28385 | 33008 ft | 486 kts | 303° |
| 2026-05-06 09:21 | 51.22753 | 6.23993 | 33373 ft | 485 kts | 303° |
| 2026-05-06 09:21 | 51.24656 | 6.19568 | 33693 ft | 483 kts | 303° |
| 2026-05-06 09:21 | 51.26563 | 6.15121 | 33924 ft | 484 kts | 303° |
| 2026-05-06 09:21 | 51.28466 | 6.10678 | 34128 ft | 484 kts | 303° |
| 2026-05-06 09:22 | 51.30341 | 6.06204 | 34353 ft | 484 kts | 302° |
| 2026-05-06 09:22 | 51.32181 | 6.01703 | 34565 ft | 484 kts | 301° |
| 2026-05-06 09:22 | 51.34012 | 5.97181 | 34783 ft | 484 kts | 301° |
| 2026-05-06 09:22 | 51.35838 | 5.92664 | 34974 ft | 484 kts | 301° |
| 2026-05-06 09:23 | 51.37844 | 5.88327 | 35144 ft | 485 kts | 309° |
| 2026-05-06 09:23 | 51.40181 | 5.84419 | 35320 ft | 487 kts | 315° |
| 2026-05-06 09:23 | 51.42652 | 5.80706 | 35504 ft | 487 kts | 316° |
| 2026-05-06 09:23 | 51.45171 | 5.77064 | 35653 ft | 488 kts | 316° |
| 2026-05-06 09:24 | 51.47691 | 5.73489 | 35842 ft | 489 kts | 317° |
| 2026-05-06 09:24 | 51.50250 | 5.69881 | 36022 ft | 488 kts | 317° |
| 2026-05-06 09:24 | 51.52805 | 5.66275 | 36211 ft | 488 kts | 317° |
| 2026-05-06 09:24 | 51.55347 | 5.62672 | 36375 ft | 488 kts | 317° |
| 2026-05-06 09:25 | 51.57895 | 5.59046 | 36512 ft | 488 kts | 317° |
| 2026-05-06 09:25 | 51.60437 | 5.55413 | 36651 ft | 489 kts | 316° |
| 2026-05-06 09:25 | 51.62975 | 5.51772 | 36769 ft | 489 kts | 316° |
| 2026-05-06 09:25 | 51.65510 | 5.48130 | 36935 ft | 489 kts | 316° |
| 2026-05-06 09:26 | 51.68059 | 5.44461 | 37084 ft | 489 kts | 316° |
| 2026-05-06 09:26 | 51.70596 | 5.40802 | 37229 ft | 489 kts | 316° |
| 2026-05-06 09:26 | 51.73135 | 5.37136 | 37384 ft | 489 kts | 316° |
| 2026-05-06 09:26 | 51.75668 | 5.33473 | 37504 ft | 489 kts | 316° |
| 2026-05-06 09:27 | 51.78199 | 5.29806 | 37679 ft | 488 kts | 316° |
| 2026-05-06 09:27 | 51.80722 | 5.26147 | 37798 ft | 488 kts | 316° |
| 2026-05-06 09:27 | 51.83217 | 5.22523 | 37859 ft | 489 kts | 316° |
| 2026-05-06 09:28 | 51.88315 | 5.15097 | 37854 ft | 494 kts | 316° |
| 2026-05-06 09:28 | 51.93424 | 5.07634 | 37865 ft | 495 kts | 316° |
| 2026-05-06 09:29 | 51.98528 | 5.00155 | 37863 ft | 494 kts | 316° |
| 2026-05-06 09:29 | 52.03634 | 4.92650 | 37870 ft | 494 kts | 316° |
| 2026-05-06 09:30 | 52.08734 | 4.85128 | 37886 ft | 494 kts | 315° |
| 2026-05-06 09:30 | 52.13817 | 4.77606 | 37868 ft | 494 kts | 315° |
| 2026-05-06 09:31 | 52.18860 | 4.70120 | 37894 ft | 494 kts | 315° |
| 2026-05-06 09:31 | 52.23932 | 4.62566 | 37875 ft | 493 kts | 315° |
| 2026-05-06 09:32 | 52.28997 | 4.54999 | 37876 ft | 493 kts | 315° |
| 2026-05-06 09:32 | 52.34056 | 4.47416 | 37885 ft | 493 kts | 315° |
| 2026-05-06 09:33 | 52.39108 | 4.39819 | 37885 ft | 493 kts | 315° |
| 2026-05-06 09:33 | 52.44157 | 4.32200 | 37896 ft | 493 kts | 315° |
| 2026-05-06 09:34 | 52.49191 | 4.24581 | 37903 ft | 492 kts | 315° |
| 2026-05-06 09:34 | 52.54180 | 4.17005 | 37911 ft | 492 kts | 315° |
| 2026-05-06 09:35 | 52.59208 | 4.09344 | 37910 ft | 492 kts | 315° |
| 2026-05-06 09:35 | 52.64222 | 4.01681 | 37913 ft | 492 kts | 315° |
| 2026-05-06 09:36 | 52.69222 | 3.94012 | 37923 ft | 490 kts | 315° |
| 2026-05-06 09:36 | 52.74177 | 3.86389 | 37926 ft | 489 kts | 315° |
| 2026-05-06 09:37 | 52.79166 | 3.78687 | 37921 ft | 489 kts | 314° |
| 2026-05-06 09:37 | 52.84136 | 3.70988 | 37928 ft | 489 kts | 315° |
| 2026-05-06 09:38 | 52.89070 | 3.63323 | 37939 ft | 489 kts | 315° |
| 2026-05-06 09:38 | 52.94060 | 3.55545 | 37940 ft | 489 kts | 314° |
| 2026-05-06 09:39 | 52.98976 | 3.47857 | 37942 ft | 489 kts | 314° |
| 2026-05-06 09:39 | 53.03915 | 3.40108 | 37934 ft | 488 kts | 314° |
| 2026-05-06 09:40 | 53.08452 | 3.31771 | 37936 ft | 484 kts | 302° |
| 2026-05-06 09:40 | 53.12282 | 3.16456 | 37932 ft | 477 kts | 283° |
| 2026-05-06 09:41 | 53.13922 | 3.05730 | 37968 ft | 478 kts | 282° |
| 2026-05-06 09:41 | 53.15480 | 2.95027 | 37954 ft | 477 kts | 282° |
| 2026-05-06 09:42 | 53.17056 | 2.84286 | 37961 ft | 477 kts | 282° |
| 2026-05-06 09:42 | 53.18645 | 2.73538 | 37957 ft | 477 kts | 282° |
| 2026-05-06 09:43 | 53.20229 | 2.62793 | 37962 ft | 477 kts | 282° |
| 2026-05-06 09:43 | 53.21541 | 2.53844 | 37966 ft | 477 kts | 282° |
| 2026-05-06 09:44 | 53.23356 | 2.41356 | 37967 ft | 476 kts | 282° |
| 2026-05-06 09:44 | 53.24654 | 2.32366 | 37966 ft | 475 kts | 282° |
| 2026-05-06 09:45 | 53.26184 | 2.21702 | 37973 ft | 474 kts | 282° |
| 2026-05-06 09:45 | 53.27711 | 2.10978 | 37971 ft | 474 kts | 282° |
| 2026-05-06 09:46 | 53.29227 | 2.00262 | 37978 ft | 474 kts | 282° |
| 2026-05-06 09:46 | 53.30731 | 1.89552 | 37977 ft | 472 kts | 281° |
| 2026-05-06 09:47 | 53.32224 | 1.78851 | 37977 ft | 472 kts | 281° |
| 2026-05-06 09:47 | 53.33696 | 1.68213 | 37977 ft | 472 kts | 281° |
| 2026-05-06 09:48 | 53.35171 | 1.57487 | 37977 ft | 472 kts | 281° |
| 2026-05-06 09:48 | 53.36635 | 1.46759 | 37977 ft | 473 kts | 281° |
| 2026-05-06 09:49 | 53.38094 | 1.35992 | 37979 ft | 473 kts | 281° |
| 2026-05-06 09:49 | 53.39542 | 1.25228 | 37980 ft | 473 kts | 281° |
| 2026-05-06 09:50 | 53.40978 | 1.14477 | 37985 ft | 473 kts | 281° |
| 2026-05-06 09:50 | 53.42395 | 1.03785 | 37985 ft | 473 kts | 281° |
| 2026-05-06 09:51 | 53.43812 | 0.93011 | 37989 ft | 472 kts | 281° |
| 2026-05-06 09:51 | 53.45218 | 0.82246 | 38000 ft | 471 kts | 280° |
| 2026-05-06 09:52 | 53.46610 | 0.71505 | 38002 ft | 470 kts | 280° |
| 2026-05-06 09:52 | 53.47990 | 0.60767 | 38008 ft | 470 kts | 280° |
| 2026-05-06 09:53 | 53.49363 | 0.50007 | 38008 ft | 471 kts | 281° |
| 2026-05-06 09:53 | 53.50724 | 0.39255 | 38014 ft | 470 kts | 280° |
| 2026-05-06 09:54 | 53.52070 | 0.28551 | 38016 ft | 470 kts | 280° |
| 2026-05-06 09:54 | 53.53413 | 0.17776 | 38024 ft | 471 kts | 280° |
| 2026-05-06 09:55 | 53.54746 | 0.07003 | 38025 ft | 470 kts | 280° |
| 2026-05-06 09:55 | 53.56067 | -0.03765 | 38047 ft | 470 kts | 280° |
| 2026-05-06 09:56 | 53.57374 | -0.14499 | 38048 ft | 471 kts | 280° |
| 2026-05-06 09:56 | 53.58682 | -0.25323 | 38047 ft | 471 kts | 280° |
| 2026-05-06 09:57 | 53.59976 | -0.36129 | 38048 ft | 471 kts | 280° |
| 2026-05-06 09:57 | 53.61264 | -0.46965 | 38050 ft | 471 kts | 280° |
| 2026-05-06 09:58 | 53.62539 | -0.57784 | 38047 ft | 471 kts | 280° |
| 2026-05-06 09:58 | 53.63796 | -0.68541 | 38042 ft | 471 kts | 280° |
| 2026-05-06 09:59 | 53.65055 | -0.79393 | 38038 ft | 471 kts | 279° |
| 2026-05-06 09:59 | 53.66302 | -0.90246 | 38041 ft | 471 kts | 279° |
| 2026-05-06 10:00 | 53.67538 | -1.01094 | 38042 ft | 471 kts | 279° |
| 2026-05-06 10:00 | 53.68759 | -1.11893 | 38053 ft | 471 kts | 279° |
| 2026-05-06 10:01 | 53.69977 | -1.22769 | 38051 ft | 471 kts | 279° |
| 2026-05-06 10:01 | 53.71183 | -1.33625 | 38053 ft | 471 kts | 279° |
| 2026-05-06 10:02 | 53.72380 | -1.44493 | 38051 ft | 471 kts | 279° |
| 2026-05-06 10:02 | 53.73567 | -1.55374 | 38059 ft | 471 kts | 279° |
| 2026-05-06 10:03 | 53.74734 | -1.66164 | 38053 ft | 470 kts | 279° |
| 2026-05-06 10:03 | 53.75898 | -1.77011 | 38053 ft | 469 kts | 279° |
| 2026-05-06 10:04 | 53.77051 | -1.87863 | 38075 ft | 469 kts | 279° |
| 2026-05-06 10:04 | 53.78194 | -1.98721 | 38067 ft | 469 kts | 279° |
| 2026-05-06 10:05 | 53.79328 | -2.09592 | 38070 ft | 469 kts | 279° |
| 2026-05-06 10:05 | 53.80453 | -2.20478 | 38064 ft | 470 kts | 279° |
| 2026-05-06 10:06 | 53.81568 | -2.31364 | 38068 ft | 470 kts | 279° |
| 2026-05-06 10:06 | 53.82671 | -2.42230 | 38064 ft | 470 kts | 279° |
| 2026-05-06 10:07 | 53.83767 | -2.53135 | 38068 ft | 470 kts | 279° |
| 2026-05-06 10:07 | 53.84852 | -2.64043 | 38072 ft | 470 kts | 279° |
| 2026-05-06 10:08 | 53.85928 | -2.74959 | 38064 ft | 470 kts | 279° |
| 2026-05-06 10:08 | 53.86996 | -2.85897 | 38075 ft | 470 kts | 279° |
| 2026-05-06 10:09 | 53.88052 | -2.96824 | 38076 ft | 470 kts | 278° |
| 2026-05-06 10:09 | 53.89099 | -3.07764 | 38077 ft | 470 kts | 278° |
| 2026-05-06 10:10 | 53.90136 | -3.18710 | 38072 ft | 470 kts | 278° |
| 2026-05-06 10:10 | 53.91156 | -3.29584 | 38069 ft | 469 kts | 278° |
| 2026-05-06 10:11 | 53.92172 | -3.40525 | 38071 ft | 469 kts | 278° |
| 2026-05-06 10:11 | 53.93447 | -3.51398 | 38074 ft | 470 kts | 286° |
| 2026-05-06 10:12 | 53.95397 | -3.62011 | 38072 ft | 470 kts | 287° |
| 2026-05-06 10:12 | 53.97454 | -3.72565 | 38067 ft | 470 kts | 288° |
| 2026-05-06 10:13 | 53.99514 | -3.83103 | 38069 ft | 470 kts | 287° |
| 2026-05-06 10:13 | 54.01544 | -3.93611 | 38071 ft | 470 kts | 287° |
| 2026-05-06 10:14 | 54.03568 | -4.04185 | 38070 ft | 470 kts | 287° |
| 2026-05-06 10:14 | 54.05579 | -4.14759 | 38074 ft | 470 kts | 287° |
| 2026-05-06 10:15 | 54.07569 | -4.25280 | 38069 ft | 469 kts | 287° |
| 2026-05-06 10:15 | 54.09562 | -4.35876 | 38070 ft | 469 kts | 287° |
| 2026-05-06 10:16 | 54.11542 | -4.46462 | 38072 ft | 469 kts | 287° |
| 2026-05-06 10:16 | 54.13515 | -4.57069 | 38079 ft | 469 kts | 287° |
| 2026-05-06 10:17 | 54.15468 | -4.67628 | 38056 ft | 469 kts | 287° |
| 2026-05-06 10:17 | 54.17419 | -4.78233 | 38071 ft | 468 kts | 287° |
| 2026-05-06 10:18 | 54.19357 | -4.88833 | 38053 ft | 467 kts | 287° |
| 2026-05-06 10:18 | 54.21281 | -4.99420 | 38052 ft | 467 kts | 287° |
| 2026-05-06 10:19 | 54.23198 | -5.10024 | 38070 ft | 467 kts | 287° |
| 2026-05-06 10:19 | 54.25107 | -5.20646 | 38050 ft | 467 kts | 287° |
| 2026-05-06 10:20 | 54.27007 | -5.31279 | 38049 ft | 467 kts | 286° |
| 2026-05-06 10:20 | 54.28886 | -5.41862 | 38059 ft | 468 kts | 287° |
| 2026-05-06 10:21 | 54.30769 | -5.52523 | 38043 ft | 468 kts | 286° |
| 2026-05-06 10:21 | 54.32645 | -5.63207 | 38067 ft | 468 kts | 286° |
| 2026-05-06 10:22 | 54.34515 | -5.73923 | 38051 ft | 468 kts | 286° |
| 2026-05-06 10:22 | 54.36360 | -5.84561 | 38057 ft | 468 kts | 286° |
| 2026-05-06 10:23 | 54.38210 | -5.95289 | 38060 ft | 468 kts | 286° |
| 2026-05-06 10:23 | 54.40045 | -6.05998 | 38055 ft | 468 kts | 286° |
| 2026-05-06 10:24 | 54.41870 | -6.16714 | 38043 ft | 468 kts | 286° |
| 2026-05-06 10:24 | 54.43688 | -6.27451 | 38041 ft | 468 kts | 286° |
| 2026-05-06 10:25 | 54.45494 | -6.38179 | 38042 ft | 468 kts | 286° |
| 2026-05-06 10:25 | 54.47293 | -6.48940 | 38033 ft | 468 kts | 286° |
| 2026-05-06 10:26 | 54.49068 | -6.59621 | 38026 ft | 468 kts | 286° |
| 2026-05-06 10:26 | 54.50847 | -6.70386 | 38035 ft | 468 kts | 286° |
| 2026-05-06 10:27 | 54.52615 | -6.81158 | 38026 ft | 468 kts | 286° |
| 2026-05-06 10:27 | 54.54375 | -6.91948 | 38027 ft | 468 kts | 285° |
| 2026-05-06 10:28 | 54.56125 | -7.02747 | 38029 ft | 467 kts | 286° |
| 2026-05-06 10:28 | 54.57855 | -7.13492 | 38029 ft | 467 kts | 286° |
| 2026-05-06 10:29 | 54.59584 | -7.24295 | 38027 ft | 467 kts | 285° |
| 2026-05-06 10:29 | 54.61303 | -7.35101 | 38028 ft | 467 kts | 285° |
| 2026-05-06 10:30 | 54.63012 | -7.45918 | 38029 ft | 467 kts | 285° |
| 2026-05-06 10:30 | 54.64710 | -7.56738 | 38024 ft | 467 kts | 285° |
| 2026-05-06 10:31 | 54.66402 | -7.67589 | 38040 ft | 467 kts | 285° |
| 2026-05-06 10:31 | 54.68072 | -7.78367 | 38042 ft | 467 kts | 285° |
| 2026-05-06 10:32 | 54.69463 | -7.87400 | 38028 ft | 467 kts | 285° |
| 2026-05-06 10:32 | 54.71124 | -7.98255 | 38021 ft | 467 kts | 285° |
| 2026-05-06 10:33 | 54.72776 | -8.09122 | 38033 ft | 467 kts | 285° |
| 2026-05-06 10:33 | 54.74417 | -8.19987 | 38035 ft | 466 kts | 285° |
| 2026-05-06 10:34 | 54.76048 | -8.30861 | 38045 ft | 466 kts | 285° |
| 2026-05-06 10:34 | 54.77671 | -8.41750 | 38027 ft | 466 kts | 285° |
| 2026-05-06 10:35 | 54.79273 | -8.52580 | 38027 ft | 466 kts | 285° |
| 2026-05-06 10:35 | 54.80875 | -8.63483 | 38040 ft | 466 kts | 285° |
| 2026-05-06 10:36 | 54.82468 | -8.74400 | 38049 ft | 466 kts | 285° |
| 2026-05-06 10:36 | 54.84050 | -8.85313 | 38051 ft | 465 kts | 285° |
| 2026-05-06 10:37 | 54.85612 | -8.96162 | 38047 ft | 465 kts | 285° |
| 2026-05-06 10:37 | 54.86405 | -9.01699 | 38051 ft | 465 kts | 285° |
| 2026-05-06 10:38 | 54.87961 | -9.12625 | 38041 ft | 465 kts | 285° |
| 2026-05-06 10:38 | 54.89506 | -9.23552 | 38045 ft | 465 kts | 285° |
| 2026-05-06 10:39 | 54.91041 | -9.34484 | 38063 ft | 466 kts | 285° |
| 2026-05-06 10:39 | 54.92554 | -9.45342 | 38044 ft | 464 kts | 285° |
| 2026-05-06 10:40 | 54.94063 | -9.56243 | 38051 ft | 464 kts | 285° |
| 2026-05-06 10:40 | 54.95563 | -9.67159 | 38056 ft | 464 kts | 285° |
| 2026-05-06 10:41 | 54.97052 | -9.78074 | 38054 ft | 464 kts | 284° |
| 2026-05-06 10:41 | 54.98535 | -9.89022 | 38049 ft | 463 kts | 285° |
| 2026-05-06 10:42 | 55.00097 | -9.99802 | 38051 ft | 461 kts | 290° |
| 2026-05-06 10:42 | 55.02307 | -10.10280 | 38054 ft | 460 kts | 292° |
| 2026-05-06 10:43 | 55.04632 | -10.20681 | 38052 ft | 460 kts | 292° |
| 2026-05-06 10:44 | 55.08141 | -10.36314 | 38049 ft | 460 kts | 292° |
| 2026-05-06 10:44 | 55.10438 | -10.46664 | 38028 ft | 459 kts | 292° |
| 2026-05-06 10:45 | 55.12734 | -10.57084 | 38046 ft | 458 kts | 292° |
| 2026-05-06 10:45 | 55.15017 | -10.67502 | 38045 ft | 458 kts | 292° |
| 2026-05-06 10:46 | 55.17291 | -10.77925 | 38045 ft | 458 kts | 292° |
| 2026-05-06 10:46 | 55.19555 | -10.88356 | 38038 ft | 458 kts | 292° |
| 2026-05-06 10:47 | 55.21796 | -10.98731 | 38042 ft | 458 kts | 292° |
| 2026-05-06 10:47 | 55.24047 | -11.09206 | 38026 ft | 458 kts | 291° |
| 2026-05-06 10:48 | 55.26272 | -11.19619 | 38035 ft | 455 kts | 291° |
| 2026-05-06 10:48 | 55.28479 | -11.29995 | 38039 ft | 453 kts | 291° |
| 2026-05-06 10:49 | 55.30670 | -11.40351 | 38036 ft | 452 kts | 291° |
| 2026-05-06 10:49 | 55.32837 | -11.50645 | 38033 ft | 452 kts | 291° |
| 2026-05-06 10:50 | 55.35014 | -11.61038 | 38029 ft | 452 kts | 291° |
| 2026-05-06 10:50 | 55.37180 | -11.71432 | 38032 ft | 452 kts | 291° |
| 2026-05-06 10:51 | 55.39325 | -11.81779 | 38032 ft | 452 kts | 291° |
| 2026-05-06 10:51 | 55.41472 | -11.92191 | 38019 ft | 452 kts | 291° |
| 2026-05-06 10:52 | 55.43610 | -12.02610 | 38020 ft | 452 kts | 291° |
| 2026-05-06 10:52 | 55.45727 | -12.12985 | 38020 ft | 452 kts | 291° |
| 2026-05-06 10:53 | 55.47847 | -12.23427 | 38019 ft | 452 kts | 290° |
| 2026-05-06 10:53 | 55.49956 | -12.33871 | 38002 ft | 452 kts | 290° |
| 2026-05-06 10:54 | 55.52066 | -12.44370 | 38022 ft | 453 kts | 290° |
| 2026-05-06 10:54 | 55.54162 | -12.54862 | 38019 ft | 453 kts | 290° |
| 2026-05-06 10:55 | 55.56234 | -12.65287 | 38021 ft | 453 kts | 290° |
| 2026-05-06 10:55 | 55.58313 | -12.75804 | 38020 ft | 453 kts | 290° |
| 2026-05-06 10:56 | 55.60382 | -12.86329 | 38017 ft | 453 kts | 290° |
| 2026-05-06 10:56 | 55.62444 | -12.96870 | 38011 ft | 453 kts | 290° |
| 2026-05-06 10:57 | 55.64491 | -13.07392 | 38016 ft | 451 kts | 290° |
| 2026-05-06 10:57 | 55.66514 | -13.17853 | 38015 ft | 451 kts | 290° |
| 2026-05-06 10:58 | 55.68539 | -13.28378 | 38015 ft | 451 kts | 289° |
| 2026-05-06 10:58 | 55.70556 | -13.38917 | 38005 ft | 451 kts | 289° |
| 2026-05-06 10:59 | 55.72564 | -13.49469 | 38004 ft | 451 kts | 289° |
| 2026-05-06 10:59 | 55.74565 | -13.60046 | 37991 ft | 451 kts | 289° |
| 2026-05-06 11:00 | 55.76555 | -13.70620 | 38002 ft | 452 kts | 289° |
| 2026-05-06 11:00 | 55.78527 | -13.81157 | 38005 ft | 452 kts | 289° |
| 2026-05-06 11:01 | 55.80504 | -13.91778 | 38005 ft | 452 kts | 289° |
| 2026-05-06 11:01 | 55.82468 | -14.02395 | 38002 ft | 452 kts | 289° |
| 2026-05-06 11:02 | 55.84426 | -14.13037 | 37994 ft | 452 kts | 289° |
| 2026-05-06 11:02 | 55.86373 | -14.23679 | 37980 ft | 452 kts | 289° |
| 2026-05-06 11:03 | 55.88298 | -14.34260 | 37996 ft | 452 kts | 289° |
| 2026-05-06 11:03 | 55.90226 | -14.44921 | 37989 ft | 452 kts | 288° |
| 2026-05-06 11:04 | 55.92143 | -14.55582 | 37991 ft | 452 kts | 288° |
| 2026-05-06 11:04 | 55.94055 | -14.66278 | 37993 ft | 452 kts | 288° |
| 2026-05-06 11:05 | 55.95956 | -14.76970 | 38005 ft | 452 kts | 288° |
| 2026-05-06 11:05 | 55.97844 | -14.87659 | 37987 ft | 451 kts | 288° |
| 2026-05-06 11:06 | 55.99709 | -14.98381 | 37986 ft | 451 kts | 286° |
| 2026-05-06 11:06 | 56.01139 | -15.09240 | 37991 ft | 452 kts | 283° |
| 2026-05-06 11:07 | 56.02472 | -15.20239 | 37988 ft | 452 kts | 283° |
| 2026-05-06 11:07 | 56.03775 | -15.31244 | 37988 ft | 452 kts | 283° |
| 2026-05-06 11:08 | 56.05071 | -15.42240 | 37984 ft | 452 kts | 283° |
| 2026-05-06 11:08 | 56.06357 | -15.53195 | 37977 ft | 452 kts | 283° |
| 2026-05-06 11:09 | 56.07641 | -15.64210 | 37981 ft | 452 kts | 283° |
| 2026-05-06 11:09 | 56.08917 | -15.75251 | 37980 ft | 452 kts | 283° |
| 2026-05-06 11:10 | 56.10181 | -15.86289 | 37983 ft | 452 kts | 283° |
| 2026-05-06 11:10 | 56.11435 | -15.97324 | 37983 ft | 451 kts | 282° |
| 2026-05-06 11:11 | 56.12676 | -16.08341 | 37975 ft | 451 kts | 282° |
| 2026-05-06 11:11 | 56.13907 | -16.19365 | 37969 ft | 451 kts | 282° |
| 2026-05-06 11:12 | 56.15125 | -16.30373 | 37974 ft | 450 kts | 282° |
| 2026-05-06 11:12 | 56.16334 | -16.41386 | 37971 ft | 450 kts | 282° |
| 2026-05-06 11:13 | 56.17533 | -16.52402 | 37966 ft | 450 kts | 282° |
| 2026-05-06 11:13 | 56.18715 | -16.63364 | 37966 ft | 450 kts | 282° |
| 2026-05-06 11:14 | 56.19895 | -16.74405 | 37966 ft | 450 kts | 282° |
| 2026-05-06 11:14 | 56.21064 | -16.85435 | 37965 ft | 450 kts | 282° |
| 2026-05-06 11:15 | 56.22225 | -16.96492 | 37965 ft | 450 kts | 282° |
| 2026-05-06 11:15 | 56.23367 | -17.07475 | 37961 ft | 449 kts | 282° |
| 2026-05-06 11:16 | 56.24507 | -17.18533 | 37964 ft | 449 kts | 281° |
| 2026-05-06 11:16 | 56.25636 | -17.29591 | 37962 ft | 449 kts | 281° |
| 2026-05-06 11:17 | 56.26758 | -17.40678 | 37954 ft | 450 kts | 281° |
| 2026-05-06 11:17 | 56.27867 | -17.51748 | 37955 ft | 450 kts | 281° |
| 2026-05-06 11:18 | 56.28963 | -17.62778 | 37952 ft | 450 kts | 281° |
| 2026-05-06 11:18 | 56.30057 | -17.73907 | 37952 ft | 450 kts | 281° |
| 2026-05-06 11:19 | 56.31139 | -17.85017 | 37941 ft | 450 kts | 281° |
| 2026-05-06 11:19 | 56.32030 | -17.94255 | 37941 ft | 450 kts | 281° |
| 2026-05-06 11:20 | 56.33267 | -18.07199 | 37962 ft | 450 kts | 281° |
| 2026-05-06 11:20 | 56.34148 | -18.16510 | 37943 ft | 450 kts | 281° |
| 2026-05-06 11:21 | 56.35190 | -18.27627 | 37948 ft | 449 kts | 281° |
| 2026-05-06 11:21 | 56.36221 | -18.38743 | 37939 ft | 449 kts | 280° |
| 2026-05-06 11:22 | 56.37236 | -18.49786 | 37936 ft | 449 kts | 280° |
| 2026-05-06 11:22 | 56.38248 | -18.60923 | 37935 ft | 449 kts | 280° |
| 2026-05-06 11:23 | 56.39251 | -18.72064 | 37942 ft | 449 kts | 280° |
| 2026-05-06 11:23 | 56.40259 | -18.83209 | 37915 ft | 449 kts | 280° |
| 2026-05-06 11:24 | 56.41271 | -18.94281 | 37903 ft | 450 kts | 280° |
| 2026-05-06 11:24 | 56.42289 | -19.05431 | 37939 ft | 450 kts | 280° |
| 2026-05-06 11:25 | 56.43304 | -19.16587 | 37933 ft | 450 kts | 280° |
| 2026-05-06 11:25 | 56.44317 | -19.27772 | 37943 ft | 450 kts | 280° |
| 2026-05-06 11:26 | 56.45327 | -19.38928 | 37942 ft | 449 kts | 280° |
| 2026-05-06 11:26 | 56.46334 | -19.50006 | 37917 ft | 449 kts | 280° |
| 2026-05-06 11:27 | 56.47358 | -19.61176 | 37898 ft | 450 kts | 280° |
| 2026-05-06 11:27 | 56.48393 | -19.72340 | 37914 ft | 449 kts | 280° |
| 2026-05-06 11:28 | 56.49436 | -19.83414 | 37928 ft | 449 kts | 280° |
| 2026-05-06 11:28 | 56.50502 | -19.94596 | 37907 ft | 450 kts | 280° |
| 2026-05-06 11:29 | 56.51572 | -20.05756 | 37908 ft | 449 kts | 280° |
| 2026-05-06 11:29 | 56.52659 | -20.16886 | 37947 ft | 449 kts | 281° |
| 2026-05-06 11:30 | 56.53773 | -20.28009 | 37948 ft | 449 kts | 281° |
| 2026-05-06 11:30 | 56.54920 | -20.39140 | 37960 ft | 449 kts | 281° |
| 2026-05-06 11:31 | 56.56100 | -20.50247 | 37977 ft | 448 kts | 281° |
| 2026-05-06 11:31 | 56.57309 | -20.61272 | 37942 ft | 449 kts | 282° |
| 2026-05-06 11:32 | 56.58567 | -20.72370 | 37902 ft | 449 kts | 282° |
| 2026-05-06 11:32 | 56.59884 | -20.83469 | 37869 ft | 450 kts | 283° |
| 2026-05-06 11:33 | 56.61279 | -20.94563 | 37876 ft | 451 kts | 283° |
| 2026-05-06 11:33 | 56.62750 | -21.05628 | 37920 ft | 449 kts | 284° |
| 2026-05-06 11:34 | 56.64281 | -21.16580 | 37914 ft | 450 kts | 284° |
| 2026-05-06 11:34 | 56.65895 | -21.27592 | 37906 ft | 451 kts | 285° |
| 2026-05-06 11:35 | 56.67574 | -21.38553 | 37915 ft | 450 kts | 286° |
| 2026-05-06 11:35 | 56.69330 | -21.49479 | 37905 ft | 450 kts | 286° |
| 2026-05-06 11:36 | 56.71182 | -21.60379 | 37849 ft | 451 kts | 287° |
| 2026-05-06 11:36 | 56.73129 | -21.71256 | 37882 ft | 451 kts | 288° |
| 2026-05-06 11:37 | 56.75147 | -21.81990 | 37909 ft | 450 kts | 289° |
| 2026-05-06 11:37 | 56.77263 | -21.92743 | 37901 ft | 451 kts | 289° |
| 2026-05-06 11:38 | 56.79468 | -22.03468 | 37869 ft | 451 kts | 290° |
| 2026-05-06 11:38 | 56.81754 | -22.14126 | 37908 ft | 451 kts | 291° |
| 2026-05-06 11:39 | 56.84131 | -22.24715 | 37876 ft | 451 kts | 292° |
| 2026-05-06 11:39 | 56.86628 | -22.35272 | 37814 ft | 453 kts | 293° |
| 2026-05-06 11:40 | 56.89245 | -22.45753 | 37884 ft | 452 kts | 294° |
| 2026-05-06 11:40 | 56.91963 | -22.56041 | 37923 ft | 452 kts | 295° |
| 2026-05-06 11:41 | 56.94815 | -22.66320 | 37865 ft | 453 kts | 296° |
| 2026-05-06 11:41 | 56.97780 | -22.76533 | 37865 ft | 454 kts | 297° |
| 2026-05-06 11:42 | 57.00847 | -22.86647 | 37925 ft | 453 kts | 298° |
| 2026-05-06 11:42 | 57.04013 | -22.96641 | 37923 ft | 453 kts | 299° |
| 2026-05-06 11:43 | 57.07290 | -23.06541 | 37822 ft | 455 kts | 301° |
| 2026-05-06 11:43 | 57.10707 | -23.16291 | 37768 ft | 456 kts | 302° |
| 2026-05-06 11:44 | 57.16101 | -23.30714 | 37911 ft | 455 kts | 304° |
| 2026-05-06 11:44 | 57.19300 | -23.38809 | 37865 ft | 456 kts | 305° |